sensor_id;sensor_type;location;lat;lon;timestamp;P1;durP1;ratioP1;P2;durP2;ratioP2
15130;SDS011;7666;50.920;4.628;2022-08-11T00:02:35;4.70;;;2.63;;
15130;SDS011;7666;50.920;4.628;2022-08-11T00:05:30;5.93;;;2.93;;
15130;SDS011;7666;50.920;4.628;2022-08-11T00:08:24;5.80;;;2.53;;
15130;SDS011;7666;50.920;4.628;2022-08-11T00:11:11;3.67;;;2.70;;
15130;SDS011;7666;50.920;4.628;2022-08-11T00:13:58;3.20;;;2.63;;
15130;SDS011;7666;50.920;4.628;2022-08-11T00:19:46;4.00;;;2.70;;
15130;SDS011;7666;50.920;4.628;2022-08-11T00:22:33;2.90;;;2.27;;
15130;SDS011;7666;50.920;4.628;2022-08-11T00:25:22;2.70;;;2.30;;
15130;SDS011;7666;50.920;4.628;2022-08-11T00:28:27;4.70;;;2.70;;
15130;SDS011;7666;50.920;4.628;2022-08-11T00:31:21;3.10;;;2.50;;
15130;SDS011;7666;50.920;4.628;2022-08-11T00:34:13;5.37;;;2.53;;
15130;SDS011;7666;50.920;4.628;2022-08-11T00:37:05;3.97;;;2.70;;
15130;SDS011;7666;50.920;4.628;2022-08-11T00:39:54;5.10;;;2.60;;
15130;SDS011;7666;50.920;4.628;2022-08-11T00:45:40;3.80;;;2.70;;
15130;SDS011;7666;50.920;4.628;2022-08-11T01:02:16;2.67;;;2.47;;
15130;SDS011;7666;50.920;4.628;2022-08-11T01:08:24;4.53;;;2.50;;
15130;SDS011;7666;50.920;4.628;2022-08-11T01:12:29;3.57;;;2.70;;
15130;SDS011;7666;50.920;4.628;2022-08-11T01:51:56;5.13;;;2.70;;
15130;SDS011;7666;50.920;4.628;2022-08-11T01:55:10;4.57;;;2.80;;
15130;SDS011;7666;50.920;4.628;2022-08-11T01:58:32;3.43;;;2.40;;
15130;SDS011;7666;50.920;4.628;2022-08-11T02:14:33;2.83;;;2.60;;
15130;SDS011;7666;50.920;4.628;2022-08-11T02:17:36;6.20;;;2.50;;
15130;SDS011;7666;50.920;4.628;2022-08-11T02:20:40;3.20;;;2.47;;
15130;SDS011;7666;50.920;4.628;2022-08-11T02:23:51;3.10;;;2.80;;
15130;SDS011;7666;50.920;4.628;2022-08-11T02:27:33;3.10;;;2.80;;
15130;SDS011;7666;50.920;4.628;2022-08-11T02:30:13;3.20;;;2.90;;
15130;SDS011;7666;50.920;4.628;2022-08-11T02:33:19;2.80;;;2.60;;
15130;SDS011;7666;50.920;4.628;2022-08-11T02:36:13;2.80;;;2.40;;
15130;SDS011;7666;50.920;4.628;2022-08-11T02:39:07;4.30;;;2.50;;
15130;SDS011;7666;50.920;4.628;2022-08-11T02:41:57;3.30;;;2.60;;
15130;SDS011;7666;50.920;4.628;2022-08-11T02:51:58;4.37;;;2.80;;
15130;SDS011;7666;50.920;4.628;2022-08-11T03:11:46;4.87;;;2.40;;
15130;SDS011;7666;50.920;4.628;2022-08-11T03:15:40;3.43;;;2.70;;
15130;SDS011;7666;50.920;4.628;2022-08-11T03:18:27;2.87;;;2.60;;
15130;SDS011;7666;50.920;4.628;2022-08-11T03:21:34;3.70;;;2.53;;
15130;SDS011;7666;50.920;4.628;2022-08-11T03:24:30;3.00;;;2.70;;
15130;SDS011;7666;50.920;4.628;2022-08-11T03:33:03;3.37;;;2.80;;
15130;SDS011;7666;50.920;4.628;2022-08-11T03:45:32;5.17;;;2.90;;
15130;SDS011;7666;50.920;4.628;2022-08-11T03:48:56;3.37;;;2.83;;
15130;SDS011;7666;50.920;4.628;2022-08-11T03:51:55;2.70;;;2.50;;
15130;SDS011;7666;50.920;4.628;2022-08-11T04:04:35;3.50;;;2.70;;
15130;SDS011;7666;50.920;4.628;2022-08-11T04:08:04;5.83;;;3.27;;
15130;SDS011;7666;50.920;4.628;2022-08-11T04:10:59;3.10;;;2.80;;
15130;SDS011;7666;50.920;4.628;2022-08-11T04:20:56;3.47;;;2.80;;
15130;SDS011;7666;50.920;4.628;2022-08-11T04:24:10;3.57;;;2.67;;
15130;SDS011;7666;50.920;4.628;2022-08-11T04:34:02;3.47;;;2.97;;
15130;SDS011;7666;50.920;4.628;2022-08-11T04:37:31;3.10;;;2.60;;
15130;SDS011;7666;50.920;4.628;2022-08-11T04:40:39;4.10;;;3.30;;
15130;SDS011;7666;50.920;4.628;2022-08-11T04:49:52;4.77;;;3.03;;
15130;SDS011;7666;50.920;4.628;2022-08-11T04:56:53;4.07;;;3.47;;
15130;SDS011;7666;50.920;4.628;2022-08-11T05:00:06;3.30;;;3.00;;
15130;SDS011;7666;50.920;4.628;2022-08-11T05:06:28;4.97;;;2.90;;
15130;SDS011;7666;50.920;4.628;2022-08-11T05:13:07;3.03;;;2.50;;
15130;SDS011;7666;50.920;4.628;2022-08-11T05:16:14;3.07;;;2.60;;
15130;SDS011;7666;50.920;4.628;2022-08-11T05:19:22;3.47;;;2.93;;
15130;SDS011;7666;50.920;4.628;2022-08-11T05:22:27;2.77;;;2.47;;
15130;SDS011;7666;50.920;4.628;2022-08-11T05:25:34;5.57;;;2.30;;
15130;SDS011;7666;50.920;4.628;2022-08-11T05:28:41;2.60;;;2.40;;
15130;SDS011;7666;50.920;4.628;2022-08-11T05:31:58;3.13;;;2.30;;
15130;SDS011;7666;50.920;4.628;2022-08-11T05:35:04;4.25;;;2.40;;
15130;SDS011;7666;50.920;4.628;2022-08-11T05:37:52;3.03;;;2.22;;
15130;SDS011;7666;50.920;4.628;2022-08-11T05:40:59;8.00;;;2.55;;
15130;SDS011;7666;50.920;4.628;2022-08-11T05:44:05;3.35;;;2.55;;
15130;SDS011;7666;50.920;4.628;2022-08-11T05:47:09;3.30;;;2.30;;
15130;SDS011;7666;50.920;4.628;2022-08-11T05:50:15;3.92;;;2.20;;
15130;SDS011;7666;50.920;4.628;2022-08-11T05:53:21;3.13;;;2.08;;
15130;SDS011;7666;50.920;4.628;2022-08-11T05:56:26;3.65;;;2.40;;
15130;SDS011;7666;50.920;4.628;2022-08-11T05:59:13;5.00;;;2.40;;
15130;SDS011;7666;50.920;4.628;2022-08-11T06:02:02;3.08;;;2.30;;
15130;SDS011;7666;50.920;4.628;2022-08-11T06:04:56;6.35;;;2.45;;
15130;SDS011;7666;50.920;4.628;2022-08-11T06:07:44;3.22;;;2.40;;
15130;SDS011;7666;50.920;4.628;2022-08-11T06:10:32;4.10;;;2.75;;
15130;SDS011;7666;50.920;4.628;2022-08-11T06:13:21;6.38;;;3.70;;
15130;SDS011;7666;50.920;4.628;2022-08-11T06:16:10;6.72;;;3.47;;
15130;SDS011;7666;50.920;4.628;2022-08-11T06:18:59;5.07;;;3.08;;
15130;SDS011;7666;50.920;4.628;2022-08-11T06:21:46;7.78;;;3.50;;
15130;SDS011;7666;50.920;4.628;2022-08-11T06:24:34;7.53;;;3.50;;
15130;SDS011;7666;50.920;4.628;2022-08-11T06:27:25;7.40;;;3.40;;
15130;SDS011;7666;50.920;4.628;2022-08-11T06:30:13;8.25;;;4.10;;
15130;SDS011;7666;50.920;4.628;2022-08-11T06:33:00;12.25;;;4.72;;
15130;SDS011;7666;50.920;4.628;2022-08-11T06:42:23;6.85;;;4.35;;
15130;SDS011;7666;50.920;4.628;2022-08-11T06:45:39;7.97;;;4.78;;
15130;SDS011;7666;50.920;4.628;2022-08-11T06:48:41;5.30;;;4.10;;
15130;SDS011;7666;50.920;4.628;2022-08-11T06:51:29;9.82;;;4.00;;
15130;SDS011;7666;50.920;4.628;2022-08-11T06:54:18;10.82;;;4.28;;
15130;SDS011;7666;50.920;4.628;2022-08-11T06:57:06;8.90;;;4.05;;
15130;SDS011;7666;50.920;4.628;2022-08-11T07:00:16;7.07;;;4.35;;
15130;SDS011;7666;50.920;4.628;2022-08-11T07:03:15;8.43;;;4.53;;
15130;SDS011;7666;50.920;4.628;2022-08-11T07:10:05;7.18;;;4.00;;
15130;SDS011;7666;50.920;4.628;2022-08-11T07:13:29;8.20;;;3.65;;
15130;SDS011;7666;50.920;4.628;2022-08-11T07:16:40;5.10;;;3.78;;
15130;SDS011;7666;50.920;4.628;2022-08-11T07:19:28;8.38;;;3.42;;
15130;SDS011;7666;50.920;4.628;2022-08-11T07:22:34;6.68;;;3.45;;
15130;SDS011;7666;50.920;4.628;2022-08-11T07:25:40;11.75;;;4.10;;
15130;SDS011;7666;50.920;4.628;2022-08-11T07:28:48;7.60;;;3.75;;
15130;SDS011;7666;50.920;4.628;2022-08-11T07:31:42;6.57;;;3.75;;
15130;SDS011;7666;50.920;4.628;2022-08-11T07:34:35;10.35;;;3.78;;
15130;SDS011;7666;50.920;4.628;2022-08-11T07:37:24;6.00;;;3.43;;
15130;SDS011;7666;50.920;4.628;2022-08-11T07:40:13;8.87;;;3.73;;
15130;SDS011;7666;50.920;4.628;2022-08-11T07:43:03;4.67;;;3.20;;
15130;SDS011;7666;50.920;4.628;2022-08-11T07:45:51;6.23;;;3.33;;
15130;SDS011;7666;50.920;4.628;2022-08-11T07:48:55;9.07;;;3.50;;
15130;SDS011;7666;50.920;4.628;2022-08-11T07:52:01;7.53;;;3.30;;
15130;SDS011;7666;50.920;4.628;2022-08-11T07:55:13;9.80;;;3.70;;
15130;SDS011;7666;50.920;4.628;2022-08-11T07:58:01;10.63;;;3.23;;
15130;SDS011;7666;50.920;4.628;2022-08-11T08:01:06;4.17;;;2.87;;
15130;SDS011;7666;50.920;4.628;2022-08-11T08:04:12;9.20;;;3.40;;
15130;SDS011;7666;50.920;4.628;2022-08-11T08:07:19;6.13;;;2.95;;
15130;SDS011;7666;50.920;4.628;2022-08-11T08:10:25;4.38;;;2.78;;
15130;SDS011;7666;50.920;4.628;2022-08-11T08:13:30;9.05;;;3.38;;
15130;SDS011;7666;50.920;4.628;2022-08-11T08:16:37;7.90;;;3.03;;
15130;SDS011;7666;50.920;4.628;2022-08-11T08:19:42;8.60;;;3.33;;
15130;SDS011;7666;50.920;4.628;2022-08-11T08:22:32;7.93;;;3.15;;
15130;SDS011;7666;50.920;4.628;2022-08-11T08:25:19;5.68;;;2.63;;
15130;SDS011;7666;50.920;4.628;2022-08-11T08:28:06;6.85;;;3.00;;
15130;SDS011;7666;50.920;4.628;2022-08-11T08:30:55;8.20;;;2.83;;
15130;SDS011;7666;50.920;4.628;2022-08-11T08:33:42;6.40;;;3.20;;
15130;SDS011;7666;50.920;4.628;2022-08-11T08:36:29;8.40;;;3.10;;
15130;SDS011;7666;50.920;4.628;2022-08-11T08:39:19;3.72;;;2.63;;
15130;SDS011;7666;50.920;4.628;2022-08-11T08:42:08;7.53;;;2.70;;
15130;SDS011;7666;50.920;4.628;2022-08-11T08:44:57;4.30;;;3.03;;
15130;SDS011;7666;50.920;4.628;2022-08-11T08:47:59;6.30;;;2.60;;
15130;SDS011;7666;50.920;4.628;2022-08-11T08:50:49;6.05;;;2.90;;
15130;SDS011;7666;50.920;4.628;2022-08-11T08:54:03;6.72;;;2.78;;
15130;SDS011;7666;50.920;4.628;2022-08-11T08:56:51;5.32;;;2.42;;
15130;SDS011;7666;50.920;4.628;2022-08-11T08:59:40;3.63;;;2.40;;
15130;SDS011;7666;50.920;4.628;2022-08-11T09:02:26;8.90;;;2.50;;
15130;SDS011;7666;50.920;4.628;2022-08-11T09:05:14;5.38;;;2.60;;
15130;SDS011;7666;50.920;4.628;2022-08-11T09:08:02;7.20;;;2.78;;
15130;SDS011;7666;50.920;4.628;2022-08-11T09:10:49;5.22;;;2.63;;
15130;SDS011;7666;50.920;4.628;2022-08-11T09:13:56;5.10;;;3.00;;
15130;SDS011;7666;50.920;4.628;2022-08-11T09:16:43;6.50;;;2.70;;
15130;SDS011;7666;50.920;4.628;2022-08-11T09:19:30;9.38;;;2.53;;
15130;SDS011;7666;50.920;4.628;2022-08-11T09:22:19;6.13;;;2.58;;
15130;SDS011;7666;50.920;4.628;2022-08-11T09:25:30;4.75;;;2.70;;
15130;SDS011;7666;50.920;4.628;2022-08-11T09:28:36;6.15;;;2.85;;
15130;SDS011;7666;50.920;4.628;2022-08-11T09:31:22;6.00;;;3.13;;
15130;SDS011;7666;50.920;4.628;2022-08-11T09:34:10;5.72;;;3.08;;
15130;SDS011;7666;50.920;4.628;2022-08-11T09:36:59;5.57;;;2.58;;
15130;SDS011;7666;50.920;4.628;2022-08-11T09:40:03;6.95;;;2.40;;
15130;SDS011;7666;50.920;4.628;2022-08-11T09:43:11;5.00;;;2.60;;
15130;SDS011;7666;50.920;4.628;2022-08-11T09:46:21;11.40;;;2.70;;
15130;SDS011;7666;50.920;4.628;2022-08-11T09:49:11;5.05;;;2.30;;
15130;SDS011;7666;50.920;4.628;2022-08-11T09:51:58;5.75;;;2.42;;
15130;SDS011;7666;50.920;4.628;2022-08-11T09:54:45;6.40;;;2.65;;
15130;SDS011;7666;50.920;4.628;2022-08-11T09:57:33;6.07;;;2.42;;
15130;SDS011;7666;50.920;4.628;2022-08-11T10:00:38;4.75;;;2.92;;
15130;SDS011;7666;50.920;4.628;2022-08-11T10:03:25;8.45;;;2.70;;
15130;SDS011;7666;50.920;4.628;2022-08-11T10:06:11;7.63;;;2.70;;
15130;SDS011;7666;50.920;4.628;2022-08-11T10:09:17;4.68;;;2.72;;
15130;SDS011;7666;50.920;4.628;2022-08-11T10:12:09;3.88;;;2.42;;
15130;SDS011;7666;50.920;4.628;2022-08-11T10:15:00;7.05;;;2.60;;
15130;SDS011;7666;50.920;4.628;2022-08-11T10:18:19;6.13;;;2.50;;
15130;SDS011;7666;50.920;4.628;2022-08-11T10:21:40;6.60;;;2.63;;
15130;SDS011;7666;50.920;4.628;2022-08-11T10:24:28;5.15;;;2.63;;
15130;SDS011;7666;50.920;4.628;2022-08-11T10:27:32;6.25;;;2.53;;
15130;SDS011;7666;50.920;4.628;2022-08-11T10:30:19;4.60;;;2.50;;
15130;SDS011;7666;50.920;4.628;2022-08-11T10:33:24;5.72;;;2.60;;
15130;SDS011;7666;50.920;4.628;2022-08-11T10:36:30;9.00;;;2.55;;
15130;SDS011;7666;50.920;4.628;2022-08-11T10:39:27;6.38;;;2.65;;
15130;SDS011;7666;50.920;4.628;2022-08-11T10:42:13;5.05;;;2.20;;
15130;SDS011;7666;50.920;4.628;2022-08-11T10:45:20;9.13;;;2.80;;
15130;SDS011;7666;50.920;4.628;2022-08-11T10:48:25;6.78;;;2.42;;
15130;SDS011;7666;50.920;4.628;2022-08-11T10:51:13;8.27;;;2.55;;
15130;SDS011;7666;50.920;4.628;2022-08-11T10:53:59;5.95;;;2.63;;
15130;SDS011;7666;50.920;4.628;2022-08-11T10:57:04;2.63;;;2.22;;
15130;SDS011;7666;50.920;4.628;2022-08-11T11:00:09;4.90;;;2.40;;
15130;SDS011;7666;50.920;4.628;2022-08-11T11:02:59;3.90;;;2.33;;
15130;SDS011;7666;50.920;4.628;2022-08-11T11:05:46;5.63;;;2.50;;
15130;SDS011;7666;50.920;4.628;2022-08-11T11:08:35;4.18;;;2.20;;
15130;SDS011;7666;50.920;4.628;2022-08-11T11:11:38;7.07;;;2.05;;
15130;SDS011;7666;50.920;4.628;2022-08-11T11:14:48;5.32;;;2.22;;
15130;SDS011;7666;50.920;4.628;2022-08-11T11:17:56;3.03;;;2.20;;
15130;SDS011;7666;50.920;4.628;2022-08-11T11:20:56;4.47;;;2.20;;
15130;SDS011;7666;50.920;4.628;2022-08-11T11:27:24;4.18;;;2.33;;
15130;SDS011;7666;50.920;4.628;2022-08-11T11:30:12;6.03;;;2.28;;
15130;SDS011;7666;50.920;4.628;2022-08-11T11:33:12;3.80;;;2.25;;
15130;SDS011;7666;50.920;4.628;2022-08-11T11:36:21;3.80;;;2.00;;
15130;SDS011;7666;50.920;4.628;2022-08-11T11:39:26;2.40;;;1.80;;
15130;SDS011;7666;50.920;4.628;2022-08-11T11:42:15;4.80;;;2.00;;
15130;SDS011;7666;50.920;4.628;2022-08-11T11:45:05;3.70;;;1.90;;
15130;SDS011;7666;50.920;4.628;2022-08-11T11:47:54;6.25;;;2.08;;
15130;SDS011;7666;50.920;4.628;2022-08-11T11:50:43;3.42;;;2.20;;
15130;SDS011;7666;50.920;4.628;2022-08-11T11:53:29;3.58;;;2.05;;
15130;SDS011;7666;50.920;4.628;2022-08-11T11:56:15;2.72;;;1.90;;
15130;SDS011;7666;50.920;4.628;2022-08-11T11:59:02;5.07;;;2.35;;
15130;SDS011;7666;50.920;4.628;2022-08-11T12:02:08;5.15;;;1.70;;
15130;SDS011;7666;50.920;4.628;2022-08-11T12:04:57;3.45;;;1.77;;
15130;SDS011;7666;50.920;4.628;2022-08-11T12:07:43;4.97;;;1.90;;
15130;SDS011;7666;50.920;4.628;2022-08-11T12:10:55;4.72;;;2.13;;
15130;SDS011;7666;50.920;4.628;2022-08-11T12:14:02;4.30;;;1.83;;
15130;SDS011;7666;50.920;4.628;2022-08-11T12:16:51;5.85;;;1.90;;
15130;SDS011;7666;50.920;4.628;2022-08-11T12:19:40;4.15;;;1.90;;
15130;SDS011;7666;50.920;4.628;2022-08-11T12:22:26;2.35;;;1.77;;
15130;SDS011;7666;50.920;4.628;2022-08-11T12:25:30;4.63;;;1.58;;
15130;SDS011;7666;50.920;4.628;2022-08-11T12:28:36;3.80;;;1.92;;
15130;SDS011;7666;50.920;4.628;2022-08-11T12:31:24;3.53;;;1.60;;
15130;SDS011;7666;50.920;4.628;2022-08-11T12:34:11;3.72;;;1.83;;
15130;SDS011;7666;50.920;4.628;2022-08-11T12:37:00;6.15;;;2.03;;
15130;SDS011;7666;50.920;4.628;2022-08-11T12:39:50;4.95;;;1.67;;
15130;SDS011;7666;50.920;4.628;2022-08-11T12:43:01;6.82;;;1.77;;
15130;SDS011;7666;50.920;4.628;2022-08-11T12:46:30;4.40;;;1.80;;
15130;SDS011;7666;50.920;4.628;2022-08-11T12:49:18;6.60;;;1.90;;
15130;SDS011;7666;50.920;4.628;2022-08-11T12:52:28;3.03;;;1.90;;
15130;SDS011;7666;50.920;4.628;2022-08-11T12:55:19;3.88;;;1.98;;
15130;SDS011;7666;50.920;4.628;2022-08-11T12:58:28;5.13;;;1.90;;
15130;SDS011;7666;50.920;4.628;2022-08-11T13:01:14;3.08;;;1.70;;
15130;SDS011;7666;50.920;4.628;2022-08-11T13:04:20;3.95;;;2.20;;
15130;SDS011;7666;50.920;4.628;2022-08-11T13:07:28;6.05;;;1.90;;
15130;SDS011;7666;50.920;4.628;2022-08-11T13:10:17;5.88;;;1.83;;
15130;SDS011;7666;50.920;4.628;2022-08-11T13:13:23;3.65;;;1.70;;
15130;SDS011;7666;50.920;4.628;2022-08-11T13:16:10;5.00;;;1.88;;
15130;SDS011;7666;50.920;4.628;2022-08-11T13:18:56;6.85;;;1.95;;
15130;SDS011;7666;50.920;4.628;2022-08-11T13:21:45;4.97;;;1.75;;
15130;SDS011;7666;50.920;4.628;2022-08-11T13:24:35;4.90;;;1.77;;
15130;SDS011;7666;50.920;4.628;2022-08-11T13:27:23;5.35;;;2.00;;
15130;SDS011;7666;50.920;4.628;2022-08-11T13:30:11;4.03;;;2.00;;
15130;SDS011;7666;50.920;4.628;2022-08-11T13:33:19;4.57;;;2.00;;
15130;SDS011;7666;50.920;4.628;2022-08-11T13:36:06;3.22;;;1.80;;
15130;SDS011;7666;50.920;4.628;2022-08-11T13:38:54;5.07;;;1.98;;
15130;SDS011;7666;50.920;4.628;2022-08-11T13:41:42;3.70;;;1.90;;
15130;SDS011;7666;50.920;4.628;2022-08-11T13:44:35;4.50;;;2.10;;
15130;SDS011;7666;50.920;4.628;2022-08-11T13:47:22;4.03;;;1.92;;
15130;SDS011;7666;50.920;4.628;2022-08-11T13:50:09;4.82;;;1.90;;
15130;SDS011;7666;50.920;4.628;2022-08-11T13:52:57;4.55;;;2.00;;
15130;SDS011;7666;50.920;4.628;2022-08-11T13:55:43;5.53;;;2.10;;
15130;SDS011;7666;50.920;4.628;2022-08-11T13:58:30;3.88;;;1.88;;
15130;SDS011;7666;50.920;4.628;2022-08-11T14:01:16;5.57;;;2.30;;
15130;SDS011;7666;50.920;4.628;2022-08-11T14:04:08;6.70;;;2.30;;
15130;SDS011;7666;50.920;4.628;2022-08-11T14:07:02;9.48;;;2.25;;
15130;SDS011;7666;50.920;4.628;2022-08-11T14:09:55;6.28;;;2.30;;
15130;SDS011;7666;50.920;4.628;2022-08-11T14:12:44;4.20;;;2.45;;
15130;SDS011;7666;50.920;4.628;2022-08-11T14:15:58;4.40;;;1.98;;
15130;SDS011;7666;50.920;4.628;2022-08-11T14:18:53;7.18;;;2.35;;
15130;SDS011;7666;50.920;4.628;2022-08-11T14:21:44;3.75;;;2.42;;
15130;SDS011;7666;50.920;4.628;2022-08-11T14:24:50;4.72;;;2.15;;
15130;SDS011;7666;50.920;4.628;2022-08-11T14:27:36;6.53;;;2.20;;
15130;SDS011;7666;50.920;4.628;2022-08-11T14:30:22;4.95;;;2.00;;
15130;SDS011;7666;50.920;4.628;2022-08-11T14:33:27;6.15;;;2.20;;
15130;SDS011;7666;50.920;4.628;2022-08-11T14:36:16;6.65;;;2.33;;
15130;SDS011;7666;50.920;4.628;2022-08-11T14:39:09;5.72;;;2.15;;
15130;SDS011;7666;50.920;4.628;2022-08-11T14:41:58;3.53;;;2.13;;
15130;SDS011;7666;50.920;4.628;2022-08-11T14:45:06;7.05;;;2.22;;
15130;SDS011;7666;50.920;4.628;2022-08-11T14:48:17;5.13;;;2.00;;
15130;SDS011;7666;50.920;4.628;2022-08-11T14:51:03;5.57;;;2.28;;
15130;SDS011;7666;50.920;4.628;2022-08-11T14:53:50;4.90;;;2.33;;
15130;SDS011;7666;50.920;4.628;2022-08-11T14:56:56;2.92;;;2.20;;
15130;SDS011;7666;50.920;4.628;2022-08-11T14:59:44;4.35;;;2.10;;
15130;SDS011;7666;50.920;4.628;2022-08-11T15:02:36;6.45;;;2.22;;
15130;SDS011;7666;50.920;4.628;2022-08-11T15:08:35;3.70;;;2.22;;
15130;SDS011;7666;50.920;4.628;2022-08-11T15:11:41;3.90;;;2.10;;
15130;SDS011;7666;50.920;4.628;2022-08-11T15:14:47;2.70;;;2.03;;
15130;SDS011;7666;50.920;4.628;2022-08-11T15:17:54;7.05;;;2.10;;
15130;SDS011;7666;50.920;4.628;2022-08-11T15:20:42;3.25;;;2.00;;
15130;SDS011;7666;50.920;4.628;2022-08-11T15:23:47;4.10;;;2.00;;
15130;SDS011;7666;50.920;4.628;2022-08-11T15:26:51;5.30;;;1.80;;
15130;SDS011;7666;50.920;4.628;2022-08-11T15:29:58;4.70;;;2.10;;
15130;SDS011;7666;50.920;4.628;2022-08-11T15:33:06;3.08;;;1.90;;
15130;SDS011;7666;50.920;4.628;2022-08-11T15:36:12;3.97;;;2.00;;
15130;SDS011;7666;50.920;4.628;2022-08-11T15:39:22;3.88;;;2.05;;
15130;SDS011;7666;50.920;4.628;2022-08-11T15:42:14;3.78;;;2.05;;
15130;SDS011;7666;50.920;4.628;2022-08-11T15:45:21;3.65;;;1.90;;
15130;SDS011;7666;50.920;4.628;2022-08-11T15:48:29;5.45;;;2.00;;
15130;SDS011;7666;50.920;4.628;2022-08-11T15:51:29;4.65;;;1.90;;
15130;SDS011;7666;50.920;4.628;2022-08-11T15:54:22;5.00;;;1.98;;
15130;SDS011;7666;50.920;4.628;2022-08-11T15:57:10;5.53;;;2.10;;
15130;SDS011;7666;50.920;4.628;2022-08-11T16:00:19;6.32;;;1.88;;
15130;SDS011;7666;50.920;4.628;2022-08-11T16:03:25;2.97;;;1.73;;
15130;SDS011;7666;50.920;4.628;2022-08-11T16:06:30;7.10;;;1.80;;
15130;SDS011;7666;50.920;4.628;2022-08-11T16:09:38;6.10;;;1.90;;
15130;SDS011;7666;50.920;4.628;2022-08-11T16:12:29;2.63;;;1.75;;
15130;SDS011;7666;50.920;4.628;2022-08-11T16:15:19;3.35;;;2.08;;
15130;SDS011;7666;50.920;4.628;2022-08-11T16:18:26;2.80;;;1.80;;
15130;SDS011;7666;50.920;4.628;2022-08-11T16:21:26;7.95;;;1.90;;
15130;SDS011;7666;50.920;4.628;2022-08-11T16:24:18;4.70;;;1.83;;
15130;SDS011;7666;50.920;4.628;2022-08-11T16:27:05;5.63;;;2.10;;
15130;SDS011;7666;50.920;4.628;2022-08-11T16:29:56;3.35;;;1.75;;
15130;SDS011;7666;50.920;4.628;2022-08-11T16:32:44;3.38;;;1.88;;
15130;SDS011;7666;50.920;4.628;2022-08-11T16:35:37;3.63;;;1.95;;
15130;SDS011;7666;50.920;4.628;2022-08-11T16:38:43;2.50;;;1.88;;
15130;SDS011;7666;50.920;4.628;2022-08-11T16:41:31;4.20;;;2.10;;
15130;SDS011;7666;50.920;4.628;2022-08-11T16:44:37;4.60;;;1.95;;
15130;SDS011;7666;50.920;4.628;2022-08-11T16:47:42;4.05;;;1.90;;
15130;SDS011;7666;50.920;4.628;2022-08-11T16:50:30;9.80;;;2.10;;
15130;SDS011;7666;50.920;4.628;2022-08-11T16:53:16;6.78;;;2.00;;
15130;SDS011;7666;50.920;4.628;2022-08-11T16:56:03;3.33;;;2.28;;
15130;SDS011;7666;50.920;4.628;2022-08-11T16:58:55;4.15;;;1.98;;
15130;SDS011;7666;50.920;4.628;2022-08-11T17:02:01;4.80;;;2.15;;
15130;SDS011;7666;50.920;4.628;2022-08-11T17:04:52;5.63;;;1.92;;
15130;SDS011;7666;50.920;4.628;2022-08-11T17:08:00;5.43;;;2.33;;
15130;SDS011;7666;50.920;4.628;2022-08-11T17:11:07;4.72;;;2.10;;
15130;SDS011;7666;50.920;4.628;2022-08-11T17:14:25;9.30;;;2.50;;
15130;SDS011;7666;50.920;4.628;2022-08-11T17:17:21;10.63;;;2.55;;
15130;SDS011;7666;50.920;4.628;2022-08-11T17:20:10;3.78;;;2.17;;
15130;SDS011;7666;50.920;4.628;2022-08-11T17:22:59;6.15;;;2.08;;
15130;SDS011;7666;50.920;4.628;2022-08-11T17:26:06;4.75;;;2.00;;
15130;SDS011;7666;50.920;4.628;2022-08-11T17:28:54;7.60;;;2.28;;
15130;SDS011;7666;50.920;4.628;2022-08-11T17:31:43;7.43;;;2.28;;
15130;SDS011;7666;50.920;4.628;2022-08-11T17:34:51;5.85;;;2.20;;
15130;SDS011;7666;50.920;4.628;2022-08-11T17:38:09;4.93;;;2.30;;
15130;SDS011;7666;50.920;4.628;2022-08-11T17:41:01;5.20;;;2.30;;
15130;SDS011;7666;50.920;4.628;2022-08-11T17:44:06;4.07;;;2.05;;
15130;SDS011;7666;50.920;4.628;2022-08-11T17:47:11;6.15;;;2.10;;
15130;SDS011;7666;50.920;4.628;2022-08-11T17:50:17;6.90;;;2.15;;
15130;SDS011;7666;50.920;4.628;2022-08-11T17:53:04;5.18;;;2.55;;
15130;SDS011;7666;50.920;4.628;2022-08-11T17:56:09;5.38;;;2.25;;
15130;SDS011;7666;50.920;4.628;2022-08-11T17:59:18;3.72;;;2.05;;
15130;SDS011;7666;50.920;4.628;2022-08-11T18:05:32;5.82;;;2.15;;
15130;SDS011;7666;50.920;4.628;2022-08-11T18:08:21;6.82;;;2.50;;
15130;SDS011;7666;50.920;4.628;2022-08-11T18:11:26;2.47;;;1.90;;
15130;SDS011;7666;50.920;4.628;2022-08-11T18:14:35;3.33;;;2.22;;
15130;SDS011;7666;50.920;4.628;2022-08-11T18:17:41;4.55;;;2.20;;
15130;SDS011;7666;50.920;4.628;2022-08-11T18:20:45;3.05;;;2.30;;
15130;SDS011;7666;50.920;4.628;2022-08-11T18:23:50;4.65;;;2.47;;
15130;SDS011;7666;50.920;4.628;2022-08-11T18:27:01;5.85;;;2.47;;
15130;SDS011;7666;50.920;4.628;2022-08-11T18:30:08;9.45;;;2.70;;
15130;SDS011;7666;50.920;4.628;2022-08-11T18:33:13;7.28;;;2.60;;
15130;SDS011;7666;50.920;4.628;2022-08-11T18:36:20;4.47;;;2.20;;
15130;SDS011;7666;50.920;4.628;2022-08-11T18:39:31;4.88;;;2.38;;
15130;SDS011;7666;50.920;4.628;2022-08-11T18:42:39;6.57;;;2.40;;
15130;SDS011;7666;50.920;4.628;2022-08-11T18:45:47;4.03;;;2.20;;
15130;SDS011;7666;50.920;4.628;2022-08-11T18:49:17;4.50;;;2.13;;
15130;SDS011;7666;50.920;4.628;2022-08-11T18:52:21;3.45;;;2.30;;
15130;SDS011;7666;50.920;4.628;2022-08-11T18:55:28;3.45;;;1.88;;
15130;SDS011;7666;50.920;4.628;2022-08-11T18:58:33;5.40;;;2.47;;
15130;SDS011;7666;50.920;4.628;2022-08-11T19:01:39;5.30;;;2.55;;
15130;SDS011;7666;50.920;4.628;2022-08-11T19:04:44;4.55;;;2.35;;
15130;SDS011;7666;50.920;4.628;2022-08-11T19:07:50;2.97;;;2.05;;
15130;SDS011;7666;50.920;4.628;2022-08-11T19:10:57;2.92;;;2.25;;
15130;SDS011;7666;50.920;4.628;2022-08-11T19:14:02;4.88;;;2.30;;
15130;SDS011;7666;50.920;4.628;2022-08-11T19:17:08;5.60;;;2.60;;
15130;SDS011;7666;50.920;4.628;2022-08-11T19:20:16;6.25;;;2.40;;
15130;SDS011;7666;50.920;4.628;2022-08-11T19:23:26;4.75;;;2.28;;
15130;SDS011;7666;50.920;4.628;2022-08-11T19:26:36;4.55;;;2.30;;
15130;SDS011;7666;50.920;4.628;2022-08-11T19:29:41;3.53;;;2.30;;
15130;SDS011;7666;50.920;4.628;2022-08-11T19:32:46;3.13;;;1.90;;
15130;SDS011;7666;50.920;4.628;2022-08-11T19:35:52;5.20;;;2.63;;
15130;SDS011;7666;50.920;4.628;2022-08-11T19:38:57;3.40;;;2.23;;
15130;SDS011;7666;50.920;4.628;2022-08-11T19:42:01;5.97;;;2.27;;
15130;SDS011;7666;50.920;4.628;2022-08-11T19:45:07;3.43;;;2.40;;
15130;SDS011;7666;50.920;4.628;2022-08-11T19:48:12;5.07;;;2.30;;
15130;SDS011;7666;50.920;4.628;2022-08-11T19:51:17;3.00;;;2.33;;
15130;SDS011;7666;50.920;4.628;2022-08-11T19:54:23;5.13;;;2.40;;
15130;SDS011;7666;50.920;4.628;2022-08-11T19:57:30;4.93;;;2.27;;
15130;SDS011;7666;50.920;4.628;2022-08-11T20:00:34;9.37;;;2.40;;
15130;SDS011;7666;50.920;4.628;2022-08-11T20:03:39;3.10;;;2.30;;
15130;SDS011;7666;50.920;4.628;2022-08-11T20:06:44;4.93;;;2.60;;
15130;SDS011;7666;50.920;4.628;2022-08-11T20:09:49;5.77;;;2.47;;
15130;SDS011;7666;50.920;4.628;2022-08-11T20:12:54;5.17;;;2.57;;
15130;SDS011;7666;50.920;4.628;2022-08-11T20:15:59;3.80;;;2.40;;
15130;SDS011;7666;50.920;4.628;2022-08-11T20:19:05;5.07;;;2.23;;
15130;SDS011;7666;50.920;4.628;2022-08-11T20:22:10;4.60;;;2.60;;
15130;SDS011;7666;50.920;4.628;2022-08-11T20:25:17;4.23;;;2.20;;
15130;SDS011;7666;50.920;4.628;2022-08-11T20:28:23;4.17;;;2.77;;
15130;SDS011;7666;50.920;4.628;2022-08-11T20:31:32;8.53;;;3.00;;
15130;SDS011;7666;50.920;4.628;2022-08-11T20:34:37;4.67;;;2.63;;
15130;SDS011;7666;50.920;4.628;2022-08-11T20:37:42;4.00;;;2.60;;
15130;SDS011;7666;50.920;4.628;2022-08-11T20:40:48;7.00;;;2.57;;
15130;SDS011;7666;50.920;4.628;2022-08-11T20:43:54;14.03;;;3.00;;
15130;SDS011;7666;50.920;4.628;2022-08-11T20:46:59;11.37;;;2.90;;
15130;SDS011;7666;50.920;4.628;2022-08-11T20:50:06;7.10;;;2.70;;
15130;SDS011;7666;50.920;4.628;2022-08-11T20:53:12;6.23;;;2.70;;
15130;SDS011;7666;50.920;4.628;2022-08-11T20:56:19;4.90;;;2.70;;
15130;SDS011;7666;50.920;4.628;2022-08-11T20:59:25;4.10;;;2.57;;
15130;SDS011;7666;50.920;4.628;2022-08-11T21:02:32;5.23;;;2.53;;
15130;SDS011;7666;50.920;4.628;2022-08-11T21:05:38;4.47;;;2.70;;
15130;SDS011;7666;50.920;4.628;2022-08-11T21:08:43;8.73;;;2.60;;